sensor_id;sensor_type;location;lat;lon;timestamp;P1;durP1;ratioP1;P2;durP2;ratioP2
77018;SDS011;66044;53.142;17.962;2023-04-03T00:00:32;7.70;;;1.60;;
77018;SDS011;66044;53.142;17.962;2023-04-03T00:03:14;11.00;;;2.10;;
77018;SDS011;66044;53.142;17.962;2023-04-03T00:05:41;6.50;;;2.10;;
77018;SDS011;66044;53.142;17.962;2023-04-03T00:08:08;10.60;;;2.30;;
77018;SDS011;66044;53.142;17.962;2023-04-03T00:10:36;7.40;;;2.00;;
77018;SDS011;66044;53.142;17.962;2023-04-03T00:13:04;7.70;;;1.90;;
77018;SDS011;66044;53.142;17.962;2023-04-03T00:15:31;5.80;;;1.30;;
77018;SDS011;66044;53.142;17.962;2023-04-03T00:17:59;6.70;;;1.40;;
77018;SDS011;66044;53.142;17.962;2023-04-03T00:20:25;5.70;;;1.50;;
77018;SDS011;66044;53.142;17.962;2023-04-03T00:22:53;14.80;;;2.30;;
77018;SDS011;66044;53.142;17.962;2023-04-03T00:25:20;6.10;;;1.50;;
77018;SDS011;66044;53.142;17.962;2023-04-03T00:27:47;8.10;;;2.10;;
77018;SDS011;66044;53.142;17.962;2023-04-03T00:30:14;6.90;;;1.50;;
77018;SDS011;66044;53.142;17.962;2023-04-03T00:32:43;10.10;;;2.10;;
77018;SDS011;66044;53.142;17.962;2023-04-03T00:35:10;8.60;;;2.10;;
77018;SDS011;66044;53.142;17.962;2023-04-03T00:37:37;8.10;;;1.80;;
77018;SDS011;66044;53.142;17.962;2023-04-03T00:40:04;8.70;;;1.90;;
77018;SDS011;66044;53.142;17.962;2023-04-03T00:42:31;6.20;;;1.40;;
77018;SDS011;66044;53.142;17.962;2023-04-03T00:47:26;8.80;;;2.50;;
77018;SDS011;66044;53.142;17.962;2023-04-03T00:49:53;8.20;;;1.80;;
77018;SDS011;66044;53.142;17.962;2023-04-03T00:52:21;6.20;;;1.80;;
77018;SDS011;66044;53.142;17.962;2023-04-03T00:54:54;6.50;;;1.40;;
77018;SDS011;66044;53.142;17.962;2023-04-03T00:57:26;7.20;;;1.60;;
77018;SDS011;66044;53.142;17.962;2023-04-03T00:59:55;5.30;;;2.00;;
77018;SDS011;66044;53.142;17.962;2023-04-03T01:02:26;5.90;;;1.40;;
77018;SDS011;66044;53.142;17.962;2023-04-03T01:04:52;6.00;;;1.30;;
77018;SDS011;66044;53.142;17.962;2023-04-03T01:07:22;4.30;;;1.50;;
77018;SDS011;66044;53.142;17.962;2023-04-03T01:09:53;5.80;;;1.40;;
77018;SDS011;66044;53.142;17.962;2023-04-03T01:12:28;6.90;;;1.70;;
77018;SDS011;66044;53.142;17.962;2023-04-03T01:14:58;6.80;;;1.30;;
77018;SDS011;66044;53.142;17.962;2023-04-03T01:17:38;8.40;;;1.40;;
77018;SDS011;66044;53.142;17.962;2023-04-03T01:25:48;8.90;;;1.70;;
77018;SDS011;66044;53.142;17.962;2023-04-03T01:28:18;9.80;;;2.00;;
77018;SDS011;66044;53.142;17.962;2023-04-03T01:33:32;8.50;;;1.70;;
77018;SDS011;66044;53.142;17.962;2023-04-03T01:35:58;6.20;;;1.90;;
77018;SDS011;66044;53.142;17.962;2023-04-03T01:38:25;6.30;;;2.30;;
77018;SDS011;66044;53.142;17.962;2023-04-03T01:40:52;7.30;;;1.60;;
77018;SDS011;66044;53.142;17.962;2023-04-03T01:43:18;6.50;;;1.60;;
77018;SDS011;66044;53.142;17.962;2023-04-03T01:45:45;6.90;;;1.40;;
77018;SDS011;66044;53.142;17.962;2023-04-03T01:48:12;7.30;;;1.70;;
77018;SDS011;66044;53.142;17.962;2023-04-03T01:50:39;6.70;;;1.50;;
77018;SDS011;66044;53.142;17.962;2023-04-03T01:53:06;9.40;;;2.00;;
77018;SDS011;66044;53.142;17.962;2023-04-03T01:55:33;4.40;;;1.30;;
77018;SDS011;66044;53.142;17.962;2023-04-03T01:57:59;5.50;;;1.60;;
77018;SDS011;66044;53.142;17.962;2023-04-03T02:00:26;6.70;;;1.70;;
77018;SDS011;66044;53.142;17.962;2023-04-03T02:02:52;7.00;;;1.30;;
77018;SDS011;66044;53.142;17.962;2023-04-03T02:05:19;7.00;;;1.70;;
77018;SDS011;66044;53.142;17.962;2023-04-03T02:07:45;9.60;;;1.70;;
77018;SDS011;66044;53.142;17.962;2023-04-03T02:10:12;6.90;;;1.50;;
77018;SDS011;66044;53.142;17.962;2023-04-03T02:12:39;6.30;;;1.60;;
77018;SDS011;66044;53.142;17.962;2023-04-03T02:15:07;7.60;;;1.60;;
77018;SDS011;66044;53.142;17.962;2023-04-03T02:17:34;5.70;;;1.20;;
77018;SDS011;66044;53.142;17.962;2023-04-03T02:20:01;5.30;;;1.10;;
77018;SDS011;66044;53.142;17.962;2023-04-03T02:22:29;6.50;;;1.30;;
77018;SDS011;66044;53.142;17.962;2023-04-03T02:24:56;5.80;;;1.60;;
77018;SDS011;66044;53.142;17.962;2023-04-03T02:27:23;4.90;;;1.40;;
77018;SDS011;66044;53.142;17.962;2023-04-03T02:29:49;8.40;;;1.50;;
77018;SDS011;66044;53.142;17.962;2023-04-03T02:32:16;6.70;;;1.60;;
77018;SDS011;66044;53.142;17.962;2023-04-03T02:34:42;4.60;;;1.10;;
77018;SDS011;66044;53.142;17.962;2023-04-03T02:37:09;4.70;;;1.50;;
77018;SDS011;66044;53.142;17.962;2023-04-03T02:39:35;6.50;;;1.60;;
77018;SDS011;66044;53.142;17.962;2023-04-03T02:42:02;6.50;;;1.60;;
77018;SDS011;66044;53.142;17.962;2023-04-03T02:44:29;6.40;;;1.50;;
77018;SDS011;66044;53.142;17.962;2023-04-03T02:46:55;5.20;;;1.30;;
77018;SDS011;66044;53.142;17.962;2023-04-03T02:49:22;5.70;;;1.50;;
77018;SDS011;66044;53.142;17.962;2023-04-03T02:51:48;5.40;;;1.20;;
77018;SDS011;66044;53.142;17.962;2023-04-03T02:54:14;6.60;;;1.60;;
77018;SDS011;66044;53.142;17.962;2023-04-03T02:56:41;6.70;;;1.90;;
77018;SDS011;66044;53.142;17.962;2023-04-03T02:59:08;7.00;;;1.70;;
77018;SDS011;66044;53.142;17.962;2023-04-03T03:01:34;7.60;;;1.90;;
77018;SDS011;66044;53.142;17.962;2023-04-03T03:04:02;10.50;;;2.30;;
77018;SDS011;66044;53.142;17.962;2023-04-03T03:06:29;9.50;;;2.50;;
77018;SDS011;66044;53.142;17.962;2023-04-03T03:08:55;7.00;;;2.00;;
77018;SDS011;66044;53.142;17.962;2023-04-03T03:11:22;6.70;;;1.90;;
77018;SDS011;66044;53.142;17.962;2023-04-03T03:13:48;6.70;;;1.60;;
77018;SDS011;66044;53.142;17.962;2023-04-03T03:16:15;5.20;;;1.30;;
77018;SDS011;66044;53.142;17.962;2023-04-03T03:18:42;3.90;;;1.00;;
77018;SDS011;66044;53.142;17.962;2023-04-03T03:21:08;6.10;;;1.30;;
77018;SDS011;66044;53.142;17.962;2023-04-03T03:23:36;7.00;;;1.40;;
77018;SDS011;66044;53.142;17.962;2023-04-03T03:26:07;7.80;;;1.50;;
77018;SDS011;66044;53.142;17.962;2023-04-03T03:28:36;7.00;;;2.10;;
77018;SDS011;66044;53.142;17.962;2023-04-03T03:31:04;8.10;;;1.90;;
77018;SDS011;66044;53.142;17.962;2023-04-03T03:33:31;8.20;;;1.60;;
77018;SDS011;66044;53.142;17.962;2023-04-03T03:35:58;6.80;;;1.70;;
77018;SDS011;66044;53.142;17.962;2023-04-03T03:38:25;7.30;;;2.10;;
77018;SDS011;66044;53.142;17.962;2023-04-03T03:40:52;5.40;;;1.60;;
77018;SDS011;66044;53.142;17.962;2023-04-03T03:43:18;7.90;;;1.90;;
77018;SDS011;66044;53.142;17.962;2023-04-03T03:45:49;7.20;;;2.10;;
77018;SDS011;66044;53.142;17.962;2023-04-03T03:48:19;6.20;;;1.80;;
77018;SDS011;66044;53.142;17.962;2023-04-03T03:50:47;7.60;;;1.80;;
77018;SDS011;66044;53.142;17.962;2023-04-03T03:53:14;7.30;;;2.30;;
77018;SDS011;66044;53.142;17.962;2023-04-03T03:55:41;9.60;;;2.70;;
77018;SDS011;66044;53.142;17.962;2023-04-03T03:58:07;10.70;;;2.90;;
77018;SDS011;66044;53.142;17.962;2023-04-03T04:00:34;9.20;;;2.80;;
77018;SDS011;66044;53.142;17.962;2023-04-03T04:03:00;10.20;;;2.90;;
77018;SDS011;66044;53.142;17.962;2023-04-03T04:05:27;8.80;;;2.60;;
77018;SDS011;66044;53.142;17.962;2023-04-03T04:07:54;10.50;;;3.00;;
77018;SDS011;66044;53.142;17.962;2023-04-03T04:10:20;8.70;;;3.00;;
77018;SDS011;66044;53.142;17.962;2023-04-03T04:12:47;9.70;;;3.40;;
77018;SDS011;66044;53.142;17.962;2023-04-03T04:15:15;11.90;;;4.50;;
77018;SDS011;66044;53.142;17.962;2023-04-03T04:17:41;11.30;;;3.70;;
77018;SDS011;66044;53.142;17.962;2023-04-03T04:20:08;12.10;;;3.70;;
77018;SDS011;66044;53.142;17.962;2023-04-03T04:22:35;10.70;;;3.60;;
77018;SDS011;66044;53.142;17.962;2023-04-03T04:25:02;8.20;;;2.40;;
77018;SDS011;66044;53.142;17.962;2023-04-03T04:27:28;7.20;;;2.40;;
77018;SDS011;66044;53.142;17.962;2023-04-03T04:29:54;9.40;;;2.20;;
77018;SDS011;66044;53.142;17.962;2023-04-03T04:32:21;6.80;;;1.60;;
77018;SDS011;66044;53.142;17.962;2023-04-03T04:34:47;8.10;;;2.10;;
77018;SDS011;66044;53.142;17.962;2023-04-03T04:37:14;5.90;;;1.60;;
77018;SDS011;66044;53.142;17.962;2023-04-03T04:39:40;6.80;;;1.70;;
77018;SDS011;66044;53.142;17.962;2023-04-03T04:42:07;7.90;;;2.20;;
77018;SDS011;66044;53.142;17.962;2023-04-03T04:44:39;7.50;;;2.20;;
77018;SDS011;66044;53.142;17.962;2023-04-03T04:47:05;7.10;;;2.00;;
77018;SDS011;66044;53.142;17.962;2023-04-03T04:49:32;5.40;;;1.60;;
77018;SDS011;66044;53.142;17.962;2023-04-03T04:51:58;6.30;;;1.50;;
77018;SDS011;66044;53.142;17.962;2023-04-03T04:54:25;5.80;;;1.80;;
77018;SDS011;66044;53.142;17.962;2023-04-03T04:56:51;5.70;;;1.60;;
77018;SDS011;66044;53.142;17.962;2023-04-03T04:59:18;7.70;;;2.20;;
77018;SDS011;66044;53.142;17.962;2023-04-03T05:01:44;9.80;;;2.30;;
77018;SDS011;66044;53.142;17.962;2023-04-03T05:04:10;7.30;;;2.40;;
77018;SDS011;66044;53.142;17.962;2023-04-03T05:06:39;7.80;;;2.50;;
77018;SDS011;66044;53.142;17.962;2023-04-03T05:09:05;9.30;;;2.50;;
77018;SDS011;66044;53.142;17.962;2023-04-03T05:11:32;8.40;;;2.50;;
77018;SDS011;66044;53.142;17.962;2023-04-03T05:13:59;13.20;;;4.10;;
77018;SDS011;66044;53.142;17.962;2023-04-03T05:16:26;10.60;;;4.20;;
77018;SDS011;66044;53.142;17.962;2023-04-03T05:18:52;9.00;;;3.40;;
77018;SDS011;66044;53.142;17.962;2023-04-03T05:21:18;10.50;;;4.30;;
77018;SDS011;66044;53.142;17.962;2023-04-03T05:23:45;9.50;;;3.80;;
77018;SDS011;66044;53.142;17.962;2023-04-03T05:26:11;9.50;;;3.70;;
77018;SDS011;66044;53.142;17.962;2023-04-03T05:28:38;10.00;;;3.80;;
77018;SDS011;66044;53.142;17.962;2023-04-03T05:31:04;12.60;;;4.90;;
77018;SDS011;66044;53.142;17.962;2023-04-03T05:33:31;11.00;;;3.90;;
77018;SDS011;66044;53.142;17.962;2023-04-03T05:36:02;18.60;;;6.20;;
77018;SDS011;66044;53.142;17.962;2023-04-03T05:38:29;15.60;;;5.30;;
77018;SDS011;66044;53.142;17.962;2023-04-03T05:40:56;14.50;;;5.10;;
77018;SDS011;66044;53.142;17.962;2023-04-03T05:43:23;10.60;;;3.20;;
77018;SDS011;66044;53.142;17.962;2023-04-03T05:45:50;10.20;;;2.90;;
77018;SDS011;66044;53.142;17.962;2023-04-03T05:48:17;14.70;;;4.40;;
77018;SDS011;66044;53.142;17.962;2023-04-03T05:50:44;17.10;;;5.70;;
77018;SDS011;66044;53.142;17.962;2023-04-03T05:53:22;21.90;;;6.70;;
77018;SDS011;66044;53.142;17.962;2023-04-03T05:55:53;20.90;;;7.40;;
77018;SDS011;66044;53.142;17.962;2023-04-03T05:58:20;12.90;;;4.20;;
77018;SDS011;66044;53.142;17.962;2023-04-03T06:00:46;9.10;;;2.90;;
77018;SDS011;66044;53.142;17.962;2023-04-03T06:03:13;12.60;;;3.20;;
77018;SDS011;66044;53.142;17.962;2023-04-03T06:05:39;8.30;;;2.10;;
77018;SDS011;66044;53.142;17.962;2023-04-03T06:08:06;9.90;;;2.60;;
77018;SDS011;66044;53.142;17.962;2023-04-03T06:10:32;8.80;;;2.30;;
77018;SDS011;66044;53.142;17.962;2023-04-03T06:13:16;8.20;;;2.10;;
77018;SDS011;66044;53.142;17.962;2023-04-03T06:15:43;8.70;;;2.50;;
77018;SDS011;66044;53.142;17.962;2023-04-03T06:18:09;10.50;;;3.10;;
77018;SDS011;66044;53.142;17.962;2023-04-03T06:20:36;11.40;;;3.20;;
77018;SDS011;66044;53.142;17.962;2023-04-03T06:23:02;10.90;;;4.00;;
77018;SDS011;66044;53.142;17.962;2023-04-03T06:25:29;8.60;;;2.20;;
77018;SDS011;66044;53.142;17.962;2023-04-03T06:27:58;10.10;;;3.10;;
77018;SDS011;66044;53.142;17.962;2023-04-03T06:30:25;6.40;;;1.70;;
77018;SDS011;66044;53.142;17.962;2023-04-03T06:32:51;9.50;;;2.50;;
77018;SDS011;66044;53.142;17.962;2023-04-03T06:35:18;8.90;;;2.20;;
77018;SDS011;66044;53.142;17.962;2023-04-03T06:37:44;7.40;;;1.90;;
77018;SDS011;66044;53.142;17.962;2023-04-03T06:40:19;8.50;;;2.30;;
77018;SDS011;66044;53.142;17.962;2023-04-03T06:42:48;5.80;;;1.60;;
77018;SDS011;66044;53.142;17.962;2023-04-03T06:45:14;5.80;;;1.60;;
77018;SDS011;66044;53.142;17.962;2023-04-03T06:47:41;5.50;;;1.50;;
77018;SDS011;66044;53.142;17.962;2023-04-03T06:50:09;5.60;;;1.30;;
77018;SDS011;66044;53.142;17.962;2023-04-03T06:52:37;6.70;;;1.50;;
77018;SDS011;66044;53.142;17.962;2023-04-03T06:55:05;5.90;;;1.40;;
77018;SDS011;66044;53.142;17.962;2023-04-03T06:57:32;6.60;;;1.50;;
77018;SDS011;66044;53.142;17.962;2023-04-03T06:59:59;5.50;;;1.40;;
77018;SDS011;66044;53.142;17.962;2023-04-03T07:02:26;6.30;;;1.60;;
77018;SDS011;66044;53.142;17.962;2023-04-03T07:04:52;6.40;;;1.20;;
77018;SDS011;66044;53.142;17.962;2023-04-03T07:07:18;5.30;;;1.30;;
77018;SDS011;66044;53.142;17.962;2023-04-03T07:09:45;5.80;;;1.40;;
77018;SDS011;66044;53.142;17.962;2023-04-03T07:12:14;4.60;;;1.20;;
77018;SDS011;66044;53.142;17.962;2023-04-03T07:14:41;5.70;;;1.50;;
77018;SDS011;66044;53.142;17.962;2023-04-03T07:17:08;7.50;;;2.30;;
77018;SDS011;66044;53.142;17.962;2023-04-03T07:19:35;8.00;;;2.40;;
77018;SDS011;66044;53.142;17.962;2023-04-03T07:22:02;8.00;;;2.30;;
77018;SDS011;66044;53.142;17.962;2023-04-03T07:24:29;9.10;;;2.10;;
77018;SDS011;66044;53.142;17.962;2023-04-03T07:26:56;10.60;;;3.60;;
77018;SDS011;66044;53.142;17.962;2023-04-03T07:29:23;6.90;;;2.00;;
77018;SDS011;66044;53.142;17.962;2023-04-03T07:31:50;8.80;;;2.60;;
77018;SDS011;66044;53.142;17.962;2023-04-03T07:34:16;6.50;;;2.00;;
77018;SDS011;66044;53.142;17.962;2023-04-03T07:36:42;5.60;;;1.70;;
77018;SDS011;66044;53.142;17.962;2023-04-03T07:39:09;6.10;;;1.60;;
77018;SDS011;66044;53.142;17.962;2023-04-03T07:41:35;6.30;;;1.90;;
77018;SDS011;66044;53.142;17.962;2023-04-03T07:44:02;5.00;;;1.50;;
77018;SDS011;66044;53.142;17.962;2023-04-03T07:46:28;5.30;;;1.30;;
77018;SDS011;66044;53.142;17.962;2023-04-03T07:48:55;5.10;;;1.20;;
77018;SDS011;66044;53.142;17.962;2023-04-03T07:51:21;5.30;;;1.10;;
77018;SDS011;66044;53.142;17.962;2023-04-03T07:53:48;6.70;;;1.20;;
77018;SDS011;66044;53.142;17.962;2023-04-03T07:56:14;6.10;;;1.10;;
77018;SDS011;66044;53.142;17.962;2023-04-03T07:58:43;6.70;;;1.60;;
77018;SDS011;66044;53.142;17.962;2023-04-03T08:01:09;5.00;;;1.40;;
77018;SDS011;66044;53.142;17.962;2023-04-03T08:03:36;4.50;;;1.00;;
77018;SDS011;66044;53.142;17.962;2023-04-03T08:06:04;3.50;;;0.90;;
77018;SDS011;66044;53.142;17.962;2023-04-03T08:08:33;7.70;;;1.70;;
77018;SDS011;66044;53.142;17.962;2023-04-03T08:11:00;4.40;;;1.10;;
77018;SDS011;66044;53.142;17.962;2023-04-03T08:13:28;4.70;;;1.30;;
77018;SDS011;66044;53.142;17.962;2023-04-03T08:15:56;5.60;;;1.30;;
77018;SDS011;66044;53.142;17.962;2023-04-03T08:18:23;3.90;;;0.90;;
77018;SDS011;66044;53.142;17.962;2023-04-03T08:20:51;5.60;;;1.50;;
77018;SDS011;66044;53.142;17.962;2023-04-03T08:23:18;5.20;;;1.30;;
77018;SDS011;66044;53.142;17.962;2023-04-03T08:25:46;5.50;;;1.30;;
77018;SDS011;66044;53.142;17.962;2023-04-03T08:28:12;4.80;;;1.30;;
77018;SDS011;66044;53.142;17.962;2023-04-03T08:30:40;7.10;;;2.00;;
77018;SDS011;66044;53.142;17.962;2023-04-03T08:33:08;7.10;;;1.50;;
77018;SDS011;66044;53.142;17.962;2023-04-03T08:35:39;4.40;;;1.20;;
77018;SDS011;66044;53.142;17.962;2023-04-03T08:38:07;5.10;;;1.30;;
77018;SDS011;66044;53.142;17.962;2023-04-03T08:40:34;5.90;;;1.40;;
77018;SDS011;66044;53.142;17.962;2023-04-03T08:43:10;5.10;;;1.10;;
77018;SDS011;66044;53.142;17.962;2023-04-03T08:46:10;5.90;;;1.60;;
77018;SDS011;66044;53.142;17.962;2023-04-03T08:48:41;6.20;;;1.90;;
77018;SDS011;66044;53.142;17.962;2023-04-03T08:51:13;4.70;;;1.30;;
77018;SDS011;66044;53.142;17.962;2023-04-03T08:53:45;6.60;;;1.20;;
77018;SDS011;66044;53.142;17.962;2023-04-03T08:56:31;5.40;;;1.40;;
77018;SDS011;66044;53.142;17.962;2023-04-03T08:59:00;7.10;;;1.80;;
77018;SDS011;66044;53.142;17.962;2023-04-03T09:01:38;7.20;;;1.80;;
77018;SDS011;66044;53.142;17.962;2023-04-03T09:04:24;5.80;;;1.40;;
77018;SDS011;66044;53.142;17.962;2023-04-03T09:06:54;6.10;;;1.40;;
77018;SDS011;66044;53.142;17.962;2023-04-03T09:09:40;5.10;;;1.20;;
77018;SDS011;66044;53.142;17.962;2023-04-03T09:17:52;5.90;;;1.40;;
77018;SDS011;66044;53.142;17.962;2023-04-03T09:23:29;4.40;;;1.40;;
77018;SDS011;66044;53.142;17.962;2023-04-03T09:26:01;6.30;;;1.70;;
77018;SDS011;66044;53.142;17.962;2023-04-03T09:28:37;6.80;;;1.70;;
77018;SDS011;66044;53.142;17.962;2023-04-03T09:31:11;7.20;;;1.70;;
77018;SDS011;66044;53.142;17.962;2023-04-03T09:33:56;7.20;;;2.00;;
77018;SDS011;66044;53.142;17.962;2023-04-03T09:36:44;5.70;;;1.20;;
77018;SDS011;66044;53.142;17.962;2023-04-03T09:39:14;5.20;;;1.40;;
77018;SDS011;66044;53.142;17.962;2023-04-03T09:45:21;6.20;;;1.70;;
77018;SDS011;66044;53.142;17.962;2023-04-03T09:50:19;7.40;;;1.90;;
77018;SDS011;66044;53.142;17.962;2023-04-03T09:52:50;5.30;;;1.30;;
77018;SDS011;66044;53.142;17.962;2023-04-03T09:55:21;4.70;;;1.40;;
77018;SDS011;66044;53.142;17.962;2023-04-03T09:57:54;4.70;;;1.00;;
77018;SDS011;66044;53.142;17.962;2023-04-03T10:00:37;5.50;;;1.40;;
77018;SDS011;66044;53.142;17.962;2023-04-03T10:03:09;6.60;;;1.50;;
77018;SDS011;66044;53.142;17.962;2023-04-03T10:05:51;5.90;;;1.70;;
77018;SDS011;66044;53.142;17.962;2023-04-03T10:08:22;6.30;;;2.00;;
77018;SDS011;66044;53.142;17.962;2023-04-03T10:11:05;6.30;;;1.80;;
77018;SDS011;66044;53.142;17.962;2023-04-03T10:13:49;6.80;;;1.40;;
77018;SDS011;66044;53.142;17.962;2023-04-03T10:16:18;5.20;;;1.20;;
77018;SDS011;66044;53.142;17.962;2023-04-03T10:18:54;8.80;;;1.80;;
77018;SDS011;66044;53.142;17.962;2023-04-03T10:22:02;5.80;;;1.30;;
77018;SDS011;66044;53.142;17.962;2023-04-03T10:27:18;4.00;;;1.10;;
77018;SDS011;66044;53.142;17.962;2023-04-03T10:32:52;5.30;;;1.20;;
77018;SDS011;66044;53.142;17.962;2023-04-03T10:43:36;6.00;;;1.80;;
77018;SDS011;66044;53.142;17.962;2023-04-03T10:46:20;4.90;;;1.10;;
77018;SDS011;66044;53.142;17.962;2023-04-03T10:54:11;6.50;;;1.80;;
77018;SDS011;66044;53.142;17.962;2023-04-03T10:56:50;5.80;;;1.40;;
77018;SDS011;66044;53.142;17.962;2023-04-03T10:59:27;4.40;;;1.10;;
77018;SDS011;66044;53.142;17.962;2023-04-03T11:01:59;5.30;;;1.10;;
77018;SDS011;66044;53.142;17.962;2023-04-03T11:04:36;3.60;;;1.20;;
77018;SDS011;66044;53.142;17.962;2023-04-03T11:07:15;5.10;;;1.10;;
77018;SDS011;66044;53.142;17.962;2023-04-03T11:09:48;4.40;;;1.20;;
77018;SDS011;66044;53.142;17.962;2023-04-03T11:12:33;4.70;;;1.00;;
77018;SDS011;66044;53.142;17.962;2023-04-03T11:15:11;4.90;;;1.30;;
77018;SDS011;66044;53.142;17.962;2023-04-03T11:17:43;7.40;;;2.30;;
77018;SDS011;66044;53.142;17.962;2023-04-03T11:20:22;7.20;;;2.20;;
77018;SDS011;66044;53.142;17.962;2023-04-03T11:23:00;8.30;;;1.80;;
77018;SDS011;66044;53.142;17.962;2023-04-03T11:25:31;4.60;;;1.40;;
77018;SDS011;66044;53.142;17.962;2023-04-03T11:28:01;8.40;;;2.50;;
77018;SDS011;66044;53.142;17.962;2023-04-03T11:38:44;4.70;;;1.30;;
77018;SDS011;66044;53.142;17.962;2023-04-03T11:41:13;6.30;;;1.70;;
77018;SDS011;66044;53.142;17.962;2023-04-03T11:44:02;3.40;;;1.00;;
77018;SDS011;66044;53.142;17.962;2023-04-03T12:03:31;5.60;;;1.30;;
77018;SDS011;66044;53.142;17.962;2023-04-03T12:13:35;6.20;;;1.30;;
77018;SDS011;66044;53.142;17.962;2023-04-03T12:16:07;6.30;;;1.40;;
77018;SDS011;66044;53.142;17.962;2023-04-03T12:21:12;5.00;;;1.10;;
77018;SDS011;66044;53.142;17.962;2023-04-03T12:24:02;3.90;;;1.10;;
77018;SDS011;66044;53.142;17.962;2023-04-03T12:29:46;4.80;;;1.40;;
77018;SDS011;66044;53.142;17.962;2023-04-03T12:35:51;3.70;;;0.90;;
77018;SDS011;66044;53.142;17.962;2023-04-03T12:40:48;5.70;;;1.00;;
77018;SDS011;66044;53.142;17.962;2023-04-03T12:43:54;4.50;;;1.10;;
77018;SDS011;66044;53.142;17.962;2023-04-03T12:46:15;4.50;;;1.00;;
77018;SDS011;66044;53.142;17.962;2023-04-03T12:48:55;4.80;;;1.20;;
77018;SDS011;66044;53.142;17.962;2023-04-03T12:51:35;5.00;;;1.00;;
77018;SDS011;66044;53.142;17.962;2023-04-03T12:56:51;5.80;;;1.10;;
77018;SDS011;66044;53.142;17.962;2023-04-03T12:59:35;4.80;;;1.40;;
77018;SDS011;66044;53.142;17.962;2023-04-03T13:02:02;3.10;;;0.80;;
77018;SDS011;66044;53.142;17.962;2023-04-03T13:04:30;3.20;;;0.90;;
77018;SDS011;66044;53.142;17.962;2023-04-03T13:06:58;3.40;;;0.90;;
77018;SDS011;66044;53.142;17.962;2023-04-03T13:09:26;2.70;;;0.70;;
77018;SDS011;66044;53.142;17.962;2023-04-03T13:11:56;4.30;;;0.90;;
77018;SDS011;66044;53.142;17.962;2023-04-03T13:14:36;4.40;;;1.20;;
77018;SDS011;66044;53.142;17.962;2023-04-03T13:17:06;3.20;;;0.80;;
77018;SDS011;66044;53.142;17.962;2023-04-03T13:19:40;4.50;;;1.00;;
77018;SDS011;66044;53.142;17.962;2023-04-03T13:22:19;4.30;;;1.00;;
77018;SDS011;66044;53.142;17.962;2023-04-03T13:25:10;5.40;;;1.30;;
77018;SDS011;66044;53.142;17.962;2023-04-03T13:27:41;8.20;;;3.60;;
77018;SDS011;66044;53.142;17.962;2023-04-03T13:33:01;7.10;;;2.00;;
77018;SDS011;66044;53.142;17.962;2023-04-03T13:43:19;11.20;;;2.70;;
77018;SDS011;66044;53.142;17.962;2023-04-03T13:48:50;4.00;;;1.10;;
77018;SDS011;66044;53.142;17.962;2023-04-03T13:51:21;5.20;;;1.40;;
77018;SDS011;66044;53.142;17.962;2023-04-03T13:59:20;8.30;;;2.20;;
77018;SDS011;66044;53.142;17.962;2023-04-03T14:01:51;6.30;;;1.60;;
77018;SDS011;66044;53.142;17.962;2023-04-03T14:04:44;6.80;;;2.20;;
77018;SDS011;66044;53.142;17.962;2023-04-03T14:07:12;7.00;;;1.80;;
77018;SDS011;66044;53.142;17.962;2023-04-03T14:09:39;7.40;;;2.00;;
77018;SDS011;66044;53.142;17.962;2023-04-03T14:12:07;5.30;;;1.30;;
77018;SDS011;66044;53.142;17.962;2023-04-03T14:14:42;5.60;;;1.40;;
77018;SDS011;66044;53.142;17.962;2023-04-03T14:17:14;5.80;;;1.60;;
77018;SDS011;66044;53.142;17.962;2023-04-03T14:19:43;7.10;;;1.70;;
77018;SDS011;66044;53.142;17.962;2023-04-03T14:22:22;4.20;;;1.10;;
77018;SDS011;66044;53.142;17.962;2023-04-03T14:24:56;6.00;;;1.40;;
77018;SDS011;66044;53.142;17.962;2023-04-03T14:27:28;5.50;;;1.50;;
77018;SDS011;66044;53.142;17.962;2023-04-03T14:29:59;5.60;;;1.50;;
77018;SDS011;66044;53.142;17.962;2023-04-03T14:32:26;4.40;;;1.10;;
77018;SDS011;66044;53.142;17.962;2023-04-03T14:34:53;4.50;;;1.50;;
77018;SDS011;66044;53.142;17.962;2023-04-03T14:37:24;4.70;;;1.20;;
77018;SDS011;66044;53.142;17.962;2023-04-03T14:39:56;6.10;;;1.80;;
77018;SDS011;66044;53.142;17.962;2023-04-03T14:42:25;5.10;;;1.40;;
77018;SDS011;66044;53.142;17.962;2023-04-03T14:44:54;5.20;;;1.20;;
77018;SDS011;66044;53.142;17.962;2023-04-03T14:47:23;4.00;;;1.10;;
77018;SDS011;66044;53.142;17.962;2023-04-03T14:49:52;4.10;;;1.10;;
77018;SDS011;66044;53.142;17.962;2023-04-03T14:52:24;5.40;;;1.50;;
77018;SDS011;66044;53.142;17.962;2023-04-03T14:54:53;5.10;;;1.30;;
77018;SDS011;66044;53.142;17.962;2023-04-03T14:57:21;5.40;;;1.50;;
77018;SDS011;66044;53.142;17.962;2023-04-03T14:59:51;4.30;;;1.20;;
77018;SDS011;66044;53.142;17.962;2023-04-03T15:02:24;4.80;;;1.00;;
77018;SDS011;66044;53.142;17.962;2023-04-03T15:04:54;6.70;;;1.90;;
77018;SDS011;66044;53.142;17.962;2023-04-03T15:07:21;17.20;;;5.60;;
77018;SDS011;66044;53.142;17.962;2023-04-03T15:09:49;11.90;;;2.80;;
77018;SDS011;66044;53.142;17.962;2023-04-03T15:12:16;6.80;;;1.80;;
77018;SDS011;66044;53.142;17.962;2023-04-03T15:14:43;9.20;;;2.60;;
77018;SDS011;66044;53.142;17.962;2023-04-03T15:17:13;9.30;;;3.10;;
77018;SDS011;66044;53.142;17.962;2023-04-03T15:19:42;11.00;;;3.50;;
77018;SDS011;66044;53.142;17.962;2023-04-03T15:22:15;7.00;;;2.10;;
77018;SDS011;66044;53.142;17.962;2023-04-03T15:24:44;7.20;;;2.10;;
77018;SDS011;66044;53.142;17.962;2023-04-03T15:27:11;7.20;;;1.80;;
77018;SDS011;66044;53.142;17.962;2023-04-03T15:29:39;7.00;;;2.10;;
77018;SDS011;66044;53.142;17.962;2023-04-03T15:32:07;6.50;;;1.90;;
77018;SDS011;66044;53.142;17.962;2023-04-03T15:34:35;7.50;;;2.10;;
77018;SDS011;66044;53.142;17.962;2023-04-03T15:37:02;5.20;;;1.50;;
77018;SDS011;66044;53.142;17.962;2023-04-03T15:39:29;4.80;;;1.30;;
77018;SDS011;66044;53.142;17.962;2023-04-03T15:41:55;7.10;;;2.10;;
77018;SDS011;66044;53.142;17.962;2023-04-03T15:44:22;7.40;;;1.60;;
77018;SDS011;66044;53.142;17.962;2023-04-03T15:46:49;6.00;;;1.80;;
77018;SDS011;66044;53.142;17.962;2023-04-03T15:49:20;5.60;;;1.60;;
77018;SDS011;66044;53.142;17.962;2023-04-03T15:51:48;9.70;;;1.90;;
77018;SDS011;66044;53.142;17.962;2023-04-03T15:54:15;5.10;;;1.40;;
77018;SDS011;66044;53.142;17.962;2023-04-03T15:56:42;7.40;;;1.80;;
77018;SDS011;66044;53.142;17.962;2023-04-03T15:59:08;5.70;;;1.70;;
77018;SDS011;66044;53.142;17.962;2023-04-03T16:01:36;4.50;;;1.30;;
77018;SDS011;66044;53.142;17.962;2023-04-03T16:04:03;6.30;;;1.70;;
77018;SDS011;66044;53.142;17.962;2023-04-03T16:06:30;6.60;;;1.60;;
77018;SDS011;66044;53.142;17.962;2023-04-03T16:08:59;4.90;;;1.40;;
77018;SDS011;66044;53.142;17.962;2023-04-03T16:11:27;5.40;;;1.40;;
77018;SDS011;66044;53.142;17.962;2023-04-03T16:13:54;6.50;;;1.50;;
77018;SDS011;66044;53.142;17.962;2023-04-03T16:16:21;4.80;;;1.10;;
77018;SDS011;66044;53.142;17.962;2023-04-03T16:18:48;5.00;;;1.40;;
77018;SDS011;66044;53.142;17.962;2023-04-03T16:21:16;5.80;;;1.80;;
77018;SDS011;66044;53.142;17.962;2023-04-03T16:23:44;6.30;;;1.90;;
77018;SDS011;66044;53.142;17.962;2023-04-03T16:26:12;5.60;;;1.30;;
77018;SDS011;66044;53.142;17.962;2023-04-03T16:28:40;4.80;;;1.40;;
77018;SDS011;66044;53.142;17.962;2023-04-03T16:31:06;6.80;;;1.80;;
77018;SDS011;66044;53.142;17.962;2023-04-03T16:33:33;5.10;;;1.60;;
77018;SDS011;66044;53.142;17.962;2023-04-03T16:36:01;8.10;;;2.50;;
77018;SDS011;66044;53.142;17.962;2023-04-03T16:38:27;8.10;;;2.10;;